createdAt,value
2022-11-12T00:00:01.483Z,13.4
2022-11-12T00:07:33.765Z,13.1
2022-11-12T00:15:06.038Z,9.9
2022-11-12T00:22:38.322Z,10.9
2022-11-12T00:30:10.597Z,10.1
2022-11-12T00:37:42.880Z,10.4
2022-11-12T00:45:15.155Z,10.8
2022-11-12T00:52:47.433Z,10.5
2022-11-12T01:00:19.716Z,10.5
2022-11-12T01:07:55.969Z,7.5
2022-11-12T01:15:28.627Z,9.3
2022-11-12T01:23:00.899Z,9.1
2022-11-12T01:30:33.174Z,9.1
2022-11-12T01:38:05.443Z,8.0
2022-11-12T01:45:37.721Z,7.7
2022-11-12T01:53:09.990Z,7.7
2022-11-12T02:00:42.281Z,7.1
2022-11-12T02:08:14.550Z,9.0
2022-11-12T02:15:46.823Z,7.8
2022-11-12T02:23:19.116Z,8.8
2022-11-12T02:30:51.403Z,8.0
2022-11-12T02:38:23.806Z,8.8
2022-11-12T02:45:56.305Z,7.9
2022-11-12T02:53:28.567Z,6.9
2022-11-12T03:01:01.085Z,8.5
2022-11-12T03:08:33.409Z,7.3
2022-11-12T03:16:05.675Z,8.2
2022-11-12T03:23:37.940Z,6.8
2022-11-12T03:31:10.216Z,7.3
2022-11-12T03:38:42.489Z,8.1
2022-11-12T03:46:14.751Z,7.0
2022-11-12T03:53:47.018Z,9.5
2022-11-12T04:01:19.317Z,7.9
2022-11-12T04:08:51.628Z,6.7
2022-11-12T04:16:23.900Z,6.3
2022-11-12T04:23:56.192Z,6.3
2022-11-12T04:31:28.464Z,6.8
2022-11-12T04:39:00.730Z,6.6
2022-11-12T04:46:33.008Z,6.1
2022-11-12T04:54:05.300Z,6.4
2022-11-12T05:01:37.629Z,5.6
2022-11-12T05:09:09.942Z,6.5
2022-11-12T05:16:42.225Z,5.7
2022-11-12T05:24:33.940Z,4.9
2022-11-12T05:31:56.764Z,4.9
2022-11-12T05:39:29.050Z,5.0
2022-11-12T05:47:01.324Z,4.7
2022-11-12T05:54:33.604Z,5.5
2022-11-12T06:02:05.938Z,5.1
2022-11-12T06:09:38.287Z,5.7
2022-11-12T06:17:10.575Z,4.5
2022-11-12T06:17:57.840Z,4.6
2022-11-12T06:18:45.246Z,6.1
2022-11-12T06:19:32.515Z,5.0
2022-11-12T06:20:19.835Z,8.2
2022-11-12T06:21:07.216Z,5.1
2022-11-12T06:21:54.491Z,4.7
2022-11-12T06:22:42.347Z,3.8
2022-11-12T06:23:29.631Z,5.7
2022-11-12T06:24:16.906Z,5.4
2022-11-12T06:25:04.180Z,5.0
2022-11-12T06:25:51.578Z,6.1
2022-11-12T06:26:38.848Z,5.6
2022-11-12T06:27:26.118Z,5.0
2022-11-12T06:28:13.513Z,6.2
2022-11-12T06:29:00.816Z,5.5
2022-11-12T06:29:48.101Z,5.8
2022-11-12T06:30:35.449Z,7.5
2022-11-12T06:31:22.951Z,9.8
2022-11-12T06:32:10.215Z,11.3
2022-11-12T06:32:57.574Z,7.6
2022-11-12T06:33:44.843Z,11.4
2022-11-12T06:34:32.099Z,6.4
2022-11-12T06:35:19.474Z,11.4
2022-11-12T06:36:06.735Z,9.2
2022-11-12T06:36:54.009Z,7.7
2022-11-12T06:37:41.370Z,8.5
2022-11-12T06:38:28.884Z,5.7
2022-11-12T06:39:16.264Z,7.8
2022-11-12T06:40:03.603Z,6.9
2022-11-12T06:40:50.864Z,8.5
2022-11-12T06:41:38.131Z,7.8
2022-11-12T06:42:25.482Z,6.9
2022-11-12T06:43:12.755Z,6.9
2022-11-12T06:44:00.020Z,9.7
2022-11-12T06:44:47.424Z,9.2
2022-11-12T06:45:34.689Z,7.1
2022-11-12T06:46:21.967Z,14.4
2022-11-12T06:47:09.348Z,6.1
2022-11-12T06:47:56.629Z,7.5
2022-11-12T06:48:43.911Z,8.8
2022-11-12T06:49:31.300Z,7.4
2022-11-12T06:50:18.654Z,10.3
2022-11-12T06:51:05.961Z,8.5
2022-11-12T06:51:53.614Z,6.6
2022-11-12T06:52:40.929Z,10.6
2022-11-12T06:53:28.241Z,6.0
2022-11-12T06:54:15.615Z,6.8
2022-11-12T06:55:02.964Z,12.8
2022-11-12T06:55:50.253Z,14.2
2022-11-12T06:56:37.650Z,10.5
2022-11-12T06:57:24.944Z,7.6
2022-11-12T06:58:12.230Z,10.0
2022-11-12T06:58:59.624Z,10.3
2022-11-12T06:59:46.892Z,18.2
2022-11-12T07:00:34.160Z,15.2
2022-11-12T07:01:21.584Z,16.0
2022-11-12T07:02:08.987Z,18.4
2022-11-12T07:02:56.294Z,17.0
2022-11-12T07:03:43.728Z,13.4
2022-11-12T07:04:31.048Z,17.1
2022-11-12T07:05:18.370Z,15.5
2022-11-12T07:06:05.778Z,18.4
2022-11-12T07:06:53.141Z,18.4
2022-11-12T07:07:40.548Z,22.9
2022-11-12T07:08:28.157Z,17.0
2022-11-12T07:09:15.886Z,16.2
2022-11-12T07:10:03.175Z,19.9
2022-11-12T07:10:50.442Z,14.9
2022-11-12T07:11:37.711Z,18.5
2022-11-12T07:12:24.982Z,17.2
2022-11-12T07:13:12.283Z,16.8
2022-11-12T07:13:59.622Z,18.7
2022-11-12T07:14:46.897Z,17.5
2022-11-12T07:15:34.163Z,17.2
2022-11-12T07:16:21.524Z,18.1
2022-11-12T07:17:08.808Z,17.9
2022-11-12T07:17:56.080Z,18.8
2022-11-12T07:18:43.438Z,17.4
2022-11-12T07:19:30.714Z,17.3
2022-11-12T07:20:17.983Z,20.6
2022-11-12T07:21:05.385Z,22.5
2022-11-12T07:21:52.661Z,24.9
2022-11-12T07:22:39.921Z,19.3
2022-11-12T07:23:27.334Z,19.3
2022-11-12T07:24:14.608Z,18.5
2022-11-12T07:25:01.890Z,19.8
2022-11-12T07:25:49.281Z,21.8
2022-11-12T07:26:36.571Z,22.6
2022-11-12T07:27:23.836Z,21.8
2022-11-12T07:28:11.252Z,22.7
2022-11-12T07:28:58.524Z,22.2
2022-11-12T07:29:48.465Z,22.7
2022-11-12T07:30:36.170Z,25.1
2022-11-12T07:31:23.574Z,20.5
2022-11-12T07:32:10.851Z,22.8
2022-11-12T07:32:58.136Z,20.5
2022-11-12T07:33:45.531Z,20.7
2022-11-12T07:34:32.804Z,22.4
2022-11-12T07:35:20.083Z,21.3
2022-11-12T07:36:07.475Z,22.8
2022-11-12T07:36:54.763Z,19.9
2022-11-12T07:37:42.134Z,23.4
2022-11-12T07:38:29.567Z,23.3
2022-11-12T07:39:17.196Z,22.9
2022-11-12T07:40:04.488Z,24.8
2022-11-12T07:40:51.817Z,23.1
2022-11-12T07:41:39.095Z,24.6
2022-11-12T07:42:26.409Z,18.9
2022-11-12T07:43:13.723Z,24.3
2022-11-12T07:44:00.981Z,23.2
2022-11-12T07:44:48.260Z,24.5
2022-11-12T07:45:35.615Z,25.1
2022-11-12T07:46:22.887Z,25.2
2022-11-12T07:47:10.240Z,27.1
2022-11-12T07:47:57.517Z,24.4
2022-11-12T07:48:44.796Z,16.4
2022-11-12T07:49:32.070Z,23.0
2022-11-12T07:50:19.428Z,20.4
2022-11-12T07:51:06.756Z,21.5
2022-11-12T07:51:54.039Z,22.1
2022-11-12T07:52:41.389Z,20.7
2022-11-12T07:53:28.668Z,22.8
2022-11-12T07:54:15.951Z,22.6
2022-11-12T07:55:03.345Z,19.4
2022-11-12T07:55:50.637Z,23.0
2022-11-12T07:56:37.915Z,20.1
2022-11-12T07:57:25.316Z,18.6
2022-11-12T07:58:12.597Z,20.8
2022-11-12T07:58:59.863Z,20.6
2022-11-12T07:59:47.267Z,18.6
2022-11-12T08:00:34.520Z,20.9
2022-11-12T08:01:21.889Z,16.6
2022-11-12T08:02:09.216Z,15.2
2022-11-12T08:02:56.493Z,17.6
2022-11-12T08:03:43.765Z,16.3
2022-11-12T08:04:31.163Z,15.8
2022-11-12T08:05:21.328Z,14.0
2022-11-12T08:06:08.983Z,16.4
2022-11-12T08:06:56.398Z,14.0
2022-11-12T08:07:43.831Z,14.8
2022-11-12T08:08:31.231Z,15.6
2022-11-12T08:09:18.640Z,12.9
2022-11-12T08:10:05.930Z,13.7
2022-11-12T08:10:53.209Z,13.5
2022-11-12T08:11:40.732Z,13.4
2022-11-12T08:12:28.011Z,13.1
2022-11-12T08:13:15.423Z,15.7
2022-11-12T08:14:02.712Z,14.6
2022-11-12T08:14:49.987Z,10.7
2022-11-12T08:15:37.263Z,9.8
2022-11-12T08:16:24.704Z,15.3
2022-11-12T08:17:11.991Z,10.4
2022-11-12T08:17:59.265Z,13.9
2022-11-12T08:18:46.753Z,16.9
2022-11-12T08:19:34.048Z,16.1
2022-11-12T08:20:21.341Z,13.8
2022-11-12T08:21:08.769Z,17.0
2022-11-12T08:21:56.036Z,19.1
2022-11-12T08:22:48.006Z,14.3
2022-11-12T08:23:36.445Z,17.0
2022-11-12T08:24:23.783Z,10.9
2022-11-12T08:25:11.047Z,10.6
2022-11-12T08:25:58.333Z,17.4
2022-11-12T08:26:45.813Z,11.9
2022-11-12T08:27:33.105Z,15.6
2022-11-12T08:28:20.379Z,16.3
2022-11-12T08:29:08.809Z,19.8
2022-11-12T08:29:56.253Z,9.9
2022-11-12T08:30:43.527Z,12.4
2022-11-12T08:31:30.796Z,15.0
2022-11-12T08:32:18.214Z,10.3
2022-11-12T08:33:05.660Z,11.0
2022-11-12T08:33:53.006Z,12.8
2022-11-12T08:34:40.430Z,16.8
2022-11-12T08:35:27.711Z,9.6
2022-11-12T08:36:14.986Z,10.9
2022-11-12T08:37:02.390Z,10.4
2022-11-12T08:37:49.661Z,10.2
2022-11-12T08:38:36.968Z,11.3
2022-11-12T08:39:24.324Z,9.2
2022-11-12T08:40:11.613Z,11.1
2022-11-12T08:40:59.074Z,18.5
2022-11-12T08:41:46.370Z,16.2
2022-11-12T08:42:33.645Z,19.7
2022-11-12T08:43:20.926Z,18.2
2022-11-12T08:44:08.943Z,18.7
2022-11-12T08:44:56.367Z,24.2
2022-11-12T08:45:43.664Z,23.9
2022-11-12T08:46:30.953Z,24.5
2022-11-12T08:47:18.282Z,23.7
2022-11-12T08:48:05.616Z,21.2
2022-11-12T08:48:52.888Z,20.5
2022-11-12T08:49:45.126Z,23.1
2022-11-12T08:50:34.991Z,23.1
2022-11-12T08:51:22.419Z,29.2
2022-11-12T08:52:09.697Z,27.5
2022-11-12T08:52:56.967Z,22.3
2022-11-12T08:53:44.369Z,24.4
2022-11-12T08:54:31.656Z,22.7
2022-11-12T08:55:18.948Z,25.1
2022-11-12T08:56:06.337Z,23.3
2022-11-12T08:56:53.627Z,21.3
2022-11-12T08:57:40.910Z,21.6
2022-11-12T08:58:28.646Z,21.6
2022-11-12T08:59:16.348Z,25.4
2022-11-12T09:00:03.629Z,25.7
2022-11-12T09:00:50.949Z,24.7
2022-11-12T09:01:38.318Z,22.9
2022-11-12T09:02:25.639Z,19.4
2022-11-12T09:03:12.973Z,22.6
2022-11-12T09:04:00.411Z,24.7
2022-11-12T09:04:47.711Z,20.6
2022-11-12T09:05:34.982Z,24.8
2022-11-12T09:06:22.427Z,26.5
2022-11-12T09:07:09.883Z,21.6
2022-11-12T09:07:57.270Z,23.9
2022-11-12T09:08:44.609Z,20.1
2022-11-12T09:09:31.875Z,21.8
2022-11-12T09:10:19.148Z,16.9
2022-11-12T09:11:06.573Z,46.1
2022-11-12T09:11:53.864Z,21.6
2022-11-12T09:12:41.169Z,22.9
2022-11-12T09:13:28.614Z,22.1
2022-11-12T09:14:15.975Z,19.1
2022-11-12T09:15:36.390Z,22.5
2022-11-12T09:16:00.536Z,20.8
2022-11-12T09:16:47.928Z,19.9
2022-11-12T09:17:35.207Z,17.5
2022-11-12T09:18:22.479Z,19.0
2022-11-12T09:19:09.895Z,19.0
2022-11-12T09:19:57.175Z,20.6
2022-11-12T09:20:44.467Z,16.4
2022-11-12T09:21:31.881Z,21.2
2022-11-12T09:22:19.164Z,22.1
2022-11-12T09:23:06.436Z,17.6
2022-11-12T09:23:53.869Z,18.2
2022-11-12T09:24:41.159Z,19.4
2022-11-12T09:25:28.478Z,17.2
2022-11-12T09:26:15.882Z,16.1
2022-11-12T09:27:03.172Z,16.1
2022-11-12T09:27:50.448Z,30.0
2022-11-12T09:28:37.876Z,22.4
2022-11-12T09:29:25.148Z,16.7
2022-11-12T09:30:12.479Z,15.4
2022-11-12T09:30:59.860Z,22.5
2022-11-12T09:31:47.156Z,15.4
2022-11-12T09:32:34.466Z,21.3
2022-11-12T09:33:21.892Z,13.5
2022-11-12T09:34:09.166Z,22.7
2022-11-12T09:34:56.449Z,17.1
2022-11-12T09:35:43.870Z,41.2
2022-11-12T09:36:34.588Z,23.4
2022-11-12T09:37:24.503Z,20.3
2022-11-12T09:38:11.925Z,19.8
2022-11-12T09:38:59.191Z,21.3
2022-11-12T09:39:46.462Z,22.6
2022-11-12T09:40:33.903Z,16.2
2022-11-12T09:41:21.179Z,18.5
2022-11-12T09:42:08.459Z,19.0
2022-11-12T09:42:55.911Z,20.1
2022-11-12T09:43:43.202Z,13.6
2022-11-12T09:44:35.567Z,17.5
2022-11-12T09:45:24.022Z,19.6
2022-11-12T09:46:27.084Z,20.9
2022-11-12T09:47:08.666Z,12.3
2022-11-12T09:47:56.104Z,15.1
2022-11-12T09:48:43.411Z,13.6
2022-11-12T09:49:30.684Z,20.8
2022-11-12T09:50:18.121Z,18.4
2022-11-12T09:51:05.439Z,18.4
2022-11-12T09:51:52.733Z,15.1
2022-11-12T09:52:40.535Z,14.8
2022-11-12T09:53:27.848Z,19.0
2022-11-12T09:54:15.133Z,15.0
2022-11-12T09:55:02.451Z,18.1
2022-11-12T09:55:49.727Z,16.3
2022-11-12T09:56:36.999Z,11.3
2022-11-12T09:57:24.320Z,15.0
2022-11-12T09:58:11.615Z,16.4
2022-11-12T09:58:58.885Z,18.1
2022-11-12T09:59:46.216Z,14.1
2022-11-12T10:00:33.499Z,14.9
2022-11-12T10:01:20.832Z,14.5
2022-11-12T10:02:08.151Z,13.3
2022-11-12T10:02:55.437Z,20.5
2022-11-12T10:03:42.728Z,13.4
2022-11-12T10:04:30.032Z,14.7
2022-11-12T10:05:17.312Z,20.3
2022-11-12T10:06:10.070Z,13.9
2022-11-12T10:06:57.832Z,12.0
2022-11-12T10:07:45.224Z,22.9
2022-11-12T10:08:32.556Z,19.7
2022-11-12T10:09:19.843Z,14.8
2022-11-12T10:10:07.228Z,18.4
2022-11-12T10:10:54.506Z,15.1
2022-11-12T10:11:41.784Z,19.6
2022-11-12T10:12:29.200Z,14.8
2022-11-12T10:13:16.488Z,17.3
2022-11-12T10:14:03.769Z,24.5
2022-11-12T10:14:51.194Z,14.1
2022-11-12T10:15:38.496Z,20.9
2022-11-12T10:16:25.762Z,11.8
2022-11-12T10:17:13.219Z,16.6
2022-11-12T10:18:00.503Z,13.6
2022-11-12T10:18:47.780Z,11.3
2022-11-12T10:19:35.218Z,15.6
2022-11-12T10:20:22.503Z,14.0
2022-11-12T10:21:09.783Z,16.6
2022-11-12T10:21:57.199Z,15.0
2022-11-12T10:22:44.466Z,12.6
2022-11-12T10:23:31.734Z,12.8
2022-11-12T10:24:19.171Z,16.9
2022-11-12T10:25:06.459Z,28.3
2022-11-12T10:25:53.754Z,13.1
2022-11-12T10:26:41.154Z,12.2
2022-11-12T10:27:28.426Z,13.8
2022-11-12T10:28:15.694Z,32.1
2022-11-12T10:29:03.128Z,25.2
2022-11-12T10:29:50.405Z,20.2
2022-11-12T10:30:37.689Z,13.7
2022-11-12T10:31:25.143Z,19.1
2022-11-12T10:32:12.419Z,15.6
2022-11-12T10:32:59.683Z,12.4
2022-11-12T10:33:47.282Z,18.7
2022-11-12T10:34:34.590Z,17.6
2022-11-12T10:35:21.870Z,20.5
2022-11-12T10:36:09.293Z,21.4
2022-11-12T10:36:56.576Z,15.2
2022-11-12T10:37:43.898Z,13.9
2022-11-12T10:38:31.324Z,19.0
2022-11-12T10:39:18.604Z,11.8
2022-11-12T10:40:05.887Z,16.1
2022-11-12T10:40:53.311Z,14.7
2022-11-12T10:41:40.596Z,25.7
2022-11-12T10:42:27.881Z,11.1
2022-11-12T10:43:15.303Z,12.2
2022-11-12T10:44:02.573Z,11.8
2022-11-12T10:44:49.853Z,13.0
2022-11-12T10:45:37.280Z,11.0
2022-11-12T10:46:24.562Z,15.5
2022-11-12T10:47:11.860Z,13.4
2022-11-12T10:47:59.236Z,14.8
2022-11-12T10:48:46.541Z,14.6
2022-11-12T10:49:33.828Z,14.9
2022-11-12T10:50:21.226Z,23.1
2022-11-12T10:51:08.512Z,24.8
2022-11-12T10:51:55.788Z,22.6
2022-11-12T10:52:43.196Z,22.6
2022-11-12T10:53:30.471Z,19.4
2022-11-12T10:54:17.946Z,23.9
2022-11-12T10:55:05.220Z,21.5
2022-11-12T10:55:52.491Z,23.8
2022-11-12T10:56:39.783Z,22.8
2022-11-12T10:57:27.227Z,20.8
2022-11-12T10:58:14.522Z,23.3
2022-11-12T10:59:01.803Z,21.2
2022-11-12T10:59:49.212Z,23.3
2022-11-12T11:00:36.479Z,25.0
2022-11-12T11:01:23.778Z,22.4
2022-11-12T11:02:11.191Z,22.1
2022-11-12T11:02:58.504Z,29.0
2022-11-12T11:03:45.799Z,24.2
2022-11-12T11:04:33.193Z,22.5
2022-11-12T11:05:20.463Z,20.3
2022-11-12T11:06:07.752Z,21.2
2022-11-12T11:06:55.122Z,21.0
2022-11-12T11:07:42.437Z,20.3
2022-11-12T11:08:34.688Z,19.1
2022-11-12T11:09:23.364Z,18.6
2022-11-12T11:10:10.756Z,18.6
2022-11-12T11:10:58.031Z,18.3
2022-11-12T11:11:45.329Z,25.4
2022-11-12T11:12:32.790Z,24.0
2022-11-12T11:13:20.085Z,22.6
2022-11-12T11:14:07.351Z,23.9
2022-11-12T11:14:54.789Z,25.5
2022-11-12T11:15:42.066Z,26.3
2022-11-12T11:23:14.367Z,19.5
2022-11-12T11:30:46.664Z,15.9
2022-11-12T11:38:19.092Z,12.7
2022-11-12T11:45:51.388Z,12.6
2022-11-12T11:53:23.676Z,9.1
2022-11-12T12:00:55.943Z,8.6
2022-11-12T12:08:28.427Z,7.8
2022-11-12T12:16:00.840Z,11.4
2022-11-12T12:23:33.120Z,7.4
2022-11-12T12:31:05.418Z,9.2
2022-11-12T12:38:37.683Z,6.6
2022-11-12T12:46:09.959Z,8.2
2022-11-12T12:53:42.237Z,8.6
2022-11-12T13:01:14.547Z,8.0
2022-11-12T13:08:46.828Z,8.0
2022-11-12T13:16:19.138Z,7.8
2022-11-12T13:23:51.429Z,8.1
2022-11-12T13:31:23.707Z,6.8
2022-11-12T13:38:59.815Z,7.7
2022-11-12T13:46:33.473Z,7.3
2022-11-12T13:54:05.772Z,7.2
2022-11-12T14:01:38.106Z,6.9
2022-11-12T14:09:10.408Z,6.1
2022-11-12T14:16:42.737Z,6.8
2022-11-12T14:24:15.036Z,7.5
2022-11-12T14:31:47.341Z,6.7
2022-11-12T14:39:19.657Z,11.5
2022-11-12T14:46:51.987Z,11.8
2022-11-12T14:54:24.291Z,9.5
2022-11-12T15:09:38.890Z,8.0
2022-11-12T15:17:11.200Z,6.8
2022-11-12T15:24:43.567Z,6.7
2022-11-12T15:32:15.869Z,6.7
2022-11-12T15:39:48.164Z,7.8
2022-11-12T15:47:20.484Z,8.2
2022-11-12T15:54:52.822Z,6.9
2022-11-12T16:02:25.132Z,6.8
2022-11-12T16:09:57.441Z,6.7
2022-11-12T16:17:29.789Z,5.4
2022-11-12T16:25:02.101Z,11.7
2022-11-12T16:32:34.414Z,6.8
2022-11-12T16:40:06.735Z,7.4
2022-11-12T16:47:39.041Z,8.8
2022-11-12T16:55:11.345Z,6.6
2022-11-12T17:02:46.237Z,10.3
2022-11-12T17:10:19.517Z,8.7
2022-11-12T17:17:51.826Z,8.0
2022-11-12T17:25:24.139Z,6.6
2022-11-12T17:32:56.459Z,7.8
2022-11-12T17:40:28.774Z,8.7
2022-11-12T17:48:01.087Z,9.2
2022-11-12T17:55:33.422Z,9.3
2022-11-12T18:03:05.735Z,13.5
2022-11-12T18:10:38.041Z,11.1
2022-11-12T18:18:10.364Z,13.9
2022-11-12T18:25:42.700Z,14.2
2022-11-12T18:33:15.041Z,16.3
2022-11-12T18:40:47.387Z,17.2
2022-11-12T18:48:19.764Z,19.8
2022-11-12T18:55:52.093Z,20.4
2022-11-12T19:03:24.506Z,29.7
2022-11-12T19:10:56.932Z,26.4
2022-11-12T19:18:29.571Z,24.4
2022-11-12T19:26:02.141Z,25.8
2022-11-12T19:33:34.509Z,27.9
2022-11-12T19:41:06.865Z,29.0
2022-11-12T19:48:39.216Z,26.0
2022-11-12T19:56:11.655Z,22.8
2022-11-12T20:03:43.996Z,23.9
2022-11-12T20:11:16.376Z,16.7
2022-11-12T20:18:51.167Z,19.1
2022-11-12T20:26:23.640Z,20.0
2022-11-12T20:33:55.977Z,17.8
2022-11-12T20:41:28.333Z,22.1
2022-11-12T20:49:00.680Z,19.1
2022-11-12T20:56:33.020Z,18.6
2022-11-12T21:04:05.359Z,18.3
2022-11-12T21:11:37.703Z,20.9
2022-11-12T21:19:10.045Z,14.9
2022-11-12T21:26:42.389Z,16.8
2022-11-12T21:34:14.754Z,15.2
2022-11-12T21:41:47.109Z,14.7
2022-11-12T21:49:19.448Z,13.6
2022-11-12T21:56:51.784Z,13.1
2022-11-12T22:04:24.123Z,13.8
2022-11-12T22:11:56.499Z,13.5
2022-11-12T22:19:28.835Z,15.6
2022-11-12T22:27:05.217Z,15.8
2022-11-12T22:34:38.015Z,12.7
2022-11-12T22:42:10.354Z,13.1
2022-11-12T22:49:42.693Z,13.4
2022-11-12T22:57:15.037Z,13.3
2022-11-12T23:04:47.403Z,10.7
2022-11-12T23:12:19.748Z,12.1
2022-11-12T23:19:52.093Z,11.1
2022-11-12T23:27:24.434Z,12.4
2022-11-12T23:34:56.788Z,11.5
2022-11-12T23:42:29.149Z,13.3
2022-11-12T23:50:01.483Z,10.8
2022-11-12T23:57:33.840Z,12.0
